Blue Hill, ME (04614)

9:33 AM EST on February 10, 2016 (GMT -0500)
APRSWXNET | | Change Station
CLOSE
Current Station
Personal Weather Station
Location: Sedgwick, ME
Elevation: 416 ft
Nearby Weather Stations

Elev 416 ft 44.36 °N, 68.61 °W | Updated 25 minutes ago

Overcast
Overcast
23 °F
Feels Like 23 °F
N
3
Wind Variable Wind from SW
Gusts 5.0 mph

Today
High -- | Low -- °F
--% Chance of Precip.
Yesterday
High -- | Low -- °F
Precip. -- in
Pressure 29.63 in
Visibility 10.0 miles
Clouds Overcast 8000 ft
Windchill 23 °F
Dew Point 21 °F
Humidity 90%
Rainfall in
Snow Depth Not available.
6:42 AM 4:56 PM
Waxing Crescent, 5% visible
METAR KBHB 101415Z 00000KT 10SM OVC080 M02/M06 A2963 RMK AO1
Pressure 29.63 in
Visibility 10.0 miles
Clouds Overcast 8000 ft
Windchill 23 °F
Dew Point 21 °F
Humidity 90%
Rainfall in
Snow Depth Not available.
6:42 AM 4:56 PM
Waxing Crescent, 5% visible
METAR KBHB 101415Z 00000KT 10SM OVC080 M02/M06 A2963 RMK AO1

10-Day Weather Forecast

Almanac

Astronomy

Feb. 10, 2016 Rise Set
Actual Time
Civil Twilight
Nautical Twilight
Astronomical Twilight
Moon
Length of Visible Light
Length of Day
Tomorrow will be .
, % of the Moon is Illuminated

Today's Extremes

State Highs State Lows

Community

WunderPhotos

Upload Photos

1,891,855 photos uploaded!

WunderBlog® & News

Nearby

Air Quality

  Air Quality AQ Index Pollutant
Not available.

Snow Depth

Station Depth Elevation

Earthquake Activity

City Distance Mag. Time & Date
Minimum magnitude displayed is 2.5.

Coastal Water Temperatures

Place Temperature

Stations

Nearby Weather Stations

Station Location Temp. Windchill Dew Point Humidity Wind Precip. Elev Updated Type
                   

Watches & Warnings

There are currently no watches in effect.